Estación Meteorológica Peña el Pijo (Robertgarden) [ 12/10/18 12:20:52 CET ]

Fecha Hora Presion(HPa) Temp (°C) Humedad % Rocio (°C) Viento ( m/s) Direccion Lluvia 1Hora(mm) Lluvia 24H(mm) LLuvia Total(mm)
2018-Oct-29 01:01:42 993.700 1.8 67 -3.7       1.55 91.16
2018-Oct-29 02:02:26 993.400 0.5 72 -4.0       1.55 91.16
2018-Oct-29 03:02:05 993.400 0.9 73 -3.4       1.55 91.16
2018-Oct-29 04:02:08 992.800 1.9 71 -2.8       1.03 91.16
2018-Oct-29 05:02:19 993.000 1.8 70 -3.1 2.0 NNW   0.51 91.16
2018-Oct-29 06:01:53 993.000 1.8 69 -3.3       0.51 91.16
2018-Oct-29 07:01:48 993.000 1.7 70 -3.2       0.51 91.16
2018-Oct-29 08:01:38 993.300 1.6 71 -3.1         91.16
2018-Oct-29 09:01:36 994.200 4.1 69 -1.1         91.16
2018-Oct-29 10:01:46 994.500 7.8 56 -0.5         91.16
2018-Oct-29 11:01:53 994.800 7.6 52 -1.8         91.16
2018-Oct-29 12:01:48 994.600 5.8 57 -2.1         91.16
2018-Oct-29 13:01:48 993.800 5.8 58 -1.9 1.1 WNW     91.16
2018-Oct-29 14:01:39 993.400 8.1 53 -1.0 2.2 WNW     91.16
2018-Oct-29 15:01:33 993.600 6.6 56 -1.6         91.16
2018-Oct-29 16:01:32 993.800 8.3 52 -1.0         91.16
2018-Oct-29 17:01:31 994.300 7.0 55 -1.4         91.16
2018-Oct-29 18:01:32 994.800 5.2 61 -1.7 0.4 WNW     91.16
2018-Oct-29 19:01:40 995.300 5.1 61 -1.8 1.4 N     91.16
2018-Oct-29 20:01:33 995.800 5.1 61 -1.8         91.16
2018-Oct-29 21:01:52 996.200 4.9 63 -1.6         91.16
2018-Oct-29 22:01:33 997.000 5.1 61 -1.8 1.3 WNW     91.16
2018-Oct-29 23:01:18 996.600 5.1 63 -1.4 1.7 N     91.16

Temperatura Máxima:    Temperatura Mínima:
Presión Máxima:997.000 Hpa    Presión Mínima:992.800 Hpa


Volver